sensor_id;sensor_type;location;lat;lon;timestamp;temperature;humidity
74458;SHT31;62896;51.032;3.712;2023-04-22T00:02:54;8;96
74458;SHT31;62896;51.032;3.712;2023-04-22T00:06:14;8;96
74458;SHT31;62896;51.032;3.712;2023-04-22T00:09:34;8;96
74458;SHT31;62896;51.032;3.712;2023-04-22T00:12:54;8;96
74458;SHT31;62896;51.032;3.712;2023-04-22T00:16:14;8;96
74458;SHT31;62896;51.032;3.712;2023-04-22T00:19:34;8;96
74458;SHT31;62896;51.032;3.712;2023-04-22T00:22:54;8;96
74458;SHT31;62896;51.032;3.712;2023-04-22T00:26:14;8;96
74458;SHT31;62896;51.032;3.712;2023-04-22T00:29:34;8;96
74458;SHT31;62896;51.032;3.712;2023-04-22T00:32:54;8;96
74458;SHT31;62896;51.032;3.712;2023-04-22T00:36:14;8;96
74458;SHT31;62896;51.032;3.712;2023-04-22T00:39:34;8;96
74458;SHT31;62896;51.032;3.712;2023-04-22T00:42:54;8;96
74458;SHT31;62896;51.032;3.712;2023-04-22T00:46:14;8.1;96
74458;SHT31;62896;51.032;3.712;2023-04-22T00:49:34;8.1;96
74458;SHT31;62896;51.032;3.712;2023-04-22T00:52:54;8.1;96
74458;SHT31;62896;51.032;3.712;2023-04-22T00:56:14;8.2;96
74458;SHT31;62896;51.032;3.712;2023-04-22T00:59:34;8.2;96
74458;SHT31;62896;51.032;3.712;2023-04-22T01:02:54;8.2;96
74458;SHT31;62896;51.032;3.712;2023-04-22T01:06:14;8.1;97
74458;SHT31;62896;51.032;3.712;2023-04-22T01:09:34;8.1;97
74458;SHT31;62896;51.032;3.712;2023-04-22T01:12:54;8.1;97
74458;SHT31;62896;51.032;3.712;2023-04-22T01:16:14;8.1;97
74458;SHT31;62896;51.032;3.712;2023-04-22T01:19:34;8.1;97
74458;SHT31;62896;51.032;3.712;2023-04-22T01:22:54;8.1;97
74458;SHT31;62896;51.032;3.712;2023-04-22T01:26:14;7.9;97
74458;SHT31;62896;51.032;3.712;2023-04-22T01:29:34;7.9;97
74458;SHT31;62896;51.032;3.712;2023-04-22T01:32:54;7.9;97
74458;SHT31;62896;51.032;3.712;2023-04-22T01:36:14;7.8;97
74458;SHT31;62896;51.032;3.712;2023-04-22T01:39:34;7.8;97
74458;SHT31;62896;51.032;3.712;2023-04-22T01:42:54;7.8;97
74458;SHT31;62896;51.032;3.712;2023-04-22T01:46:15;7.9;97
74458;SHT31;62896;51.032;3.712;2023-04-22T01:49:34;7.9;97
74458;SHT31;62896;51.032;3.712;2023-04-22T01:52:54;7.9;97
74458;SHT31;62896;51.032;3.712;2023-04-22T01:56:14;7.7;97
74458;SHT31;62896;51.032;3.712;2023-04-22T01:59:34;7.7;97
74458;SHT31;62896;51.032;3.712;2023-04-22T02:02:54;7.7;97
74458;SHT31;62896;51.032;3.712;2023-04-22T02:06:14;7.5;97
74458;SHT31;62896;51.032;3.712;2023-04-22T02:09:34;7.5;97
74458;SHT31;62896;51.032;3.712;2023-04-22T02:12:54;7.5;97
74458;SHT31;62896;51.032;3.712;2023-04-22T02:16:14;7.4;97
74458;SHT31;62896;51.032;3.712;2023-04-22T02:19:34;7.4;97
74458;SHT31;62896;51.032;3.712;2023-04-22T02:22:54;7.4;97
74458;SHT31;62896;51.032;3.712;2023-04-22T02:26:14;7.4;97
74458;SHT31;62896;51.032;3.712;2023-04-22T02:29:34;7.4;97
74458;SHT31;62896;51.032;3.712;2023-04-22T02:32:54;7.4;97
74458;SHT31;62896;51.032;3.712;2023-04-22T02:36:14;7.4;97
74458;SHT31;62896;51.032;3.712;2023-04-22T02:39:34;7.4;97
74458;SHT31;62896;51.032;3.712;2023-04-22T02:42:54;7.4;97
74458;SHT31;62896;51.032;3.712;2023-04-22T02:46:14;7.5;97
74458;SHT31;62896;51.032;3.712;2023-04-22T02:49:34;7.5;97
74458;SHT31;62896;51.032;3.712;2023-04-22T02:52:54;7.5;97
74458;SHT31;62896;51.032;3.712;2023-04-22T02:56:14;7.6;97
74458;SHT31;62896;51.032;3.712;2023-04-22T02:59:34;7.6;97
74458;SHT31;62896;51.032;3.712;2023-04-22T03:02:54;7.6;97
74458;SHT31;62896;51.032;3.712;2023-04-22T03:06:14;7.4;97
74458;SHT31;62896;51.032;3.712;2023-04-22T03:09:34;7.4;97
74458;SHT31;62896;51.032;3.712;2023-04-22T03:12:54;7.4;97
74458;SHT31;62896;51.032;3.712;2023-04-22T03:16:15;7.3;97
74458;SHT31;62896;51.032;3.712;2023-04-22T03:19:34;7.3;97
74458;SHT31;62896;51.032;3.712;2023-04-22T03:22:54;7.3;97
74458;SHT31;62896;51.032;3.712;2023-04-22T03:26:14;7.3;97
74458;SHT31;62896;51.032;3.712;2023-04-22T03:29:34;7.3;97
74458;SHT31;62896;51.032;3.712;2023-04-22T03:32:54;7.3;97
74458;SHT31;62896;51.032;3.712;2023-04-22T03:36:14;7.3;97
74458;SHT31;62896;51.032;3.712;2023-04-22T03:39:34;7.3;97
74458;SHT31;62896;51.032;3.712;2023-04-22T03:42:54;7.3;97
74458;SHT31;62896;51.032;3.712;2023-04-22T03:46:14;7.3;97
74458;SHT31;62896;51.032;3.712;2023-04-22T03:49:34;7.3;97
74458;SHT31;62896;51.032;3.712;2023-04-22T03:52:54;7.3;97
74458;SHT31;62896;51.032;3.712;2023-04-22T03:56:14;7.2;97
74458;SHT31;62896;51.032;3.712;2023-04-22T03:59:34;7.2;97
74458;SHT31;62896;51.032;3.712;2023-04-22T04:02:54;7.2;97
74458;SHT31;62896;51.032;3.712;2023-04-22T04:06:14;7.4;97
74458;SHT31;62896;51.032;3.712;2023-04-22T04:09:34;7.4;97
74458;SHT31;62896;51.032;3.712;2023-04-22T04:12:54;7.4;97
74458;SHT31;62896;51.032;3.712;2023-04-22T04:16:14;7.5;97
74458;SHT31;62896;51.032;3.712;2023-04-22T04:19:34;7.5;97
74458;SHT31;62896;51.032;3.712;2023-04-22T04:22:54;7.5;97
74458;SHT31;62896;51.032;3.712;2023-04-22T04:26:14;7.6;97
74458;SHT31;62896;51.032;3.712;2023-04-22T04:29:34;7.6;97
74458;SHT31;62896;51.032;3.712;2023-04-22T04:32:54;7.6;97
74458;SHT31;62896;51.032;3.712;2023-04-22T04:36:14;7.6;96
74458;SHT31;62896;51.032;3.712;2023-04-22T04:39:34;7.6;96
74458;SHT31;62896;51.032;3.712;2023-04-22T04:42:54;7.6;96
74458;SHT31;62896;51.032;3.712;2023-04-22T04:46:14;7.6;97
74458;SHT31;62896;51.032;3.712;2023-04-22T04:49:34;7.6;97
74458;SHT31;62896;51.032;3.712;2023-04-22T04:52:54;7.6;97
74458;SHT31;62896;51.032;3.712;2023-04-22T04:56:14;7.7;96
74458;SHT31;62896;51.032;3.712;2023-04-22T04:59:34;7.7;96
74458;SHT31;62896;51.032;3.712;2023-04-22T05:02:54;7.7;96
74458;SHT31;62896;51.032;3.712;2023-04-22T05:06:14;7.8;96
74458;SHT31;62896;51.032;3.712;2023-04-22T05:09:34;7.8;96
74458;SHT31;62896;51.032;3.712;2023-04-22T05:12:54;7.8;96
74458;SHT31;62896;51.032;3.712;2023-04-22T05:16:14;7.8;96
74458;SHT31;62896;51.032;3.712;2023-04-22T05:19:34;7.8;96
74458;SHT31;62896;51.032;3.712;2023-04-22T05:22:54;7.8;96
74458;SHT31;62896;51.032;3.712;2023-04-22T05:26:14;7.7;96
74458;SHT31;62896;51.032;3.712;2023-04-22T05:29:34;7.7;96
74458;SHT31;62896;51.032;3.712;2023-04-22T05:32:54;7.7;96
74458;SHT31;62896;51.032;3.712;2023-04-22T05:36:14;7.8;96
74458;SHT31;62896;51.032;3.712;2023-04-22T05:39:34;7.8;96
74458;SHT31;62896;51.032;3.712;2023-04-22T05:42:55;7.8;96
74458;SHT31;62896;51.032;3.712;2023-04-22T05:46:14;7.7;96
74458;SHT31;62896;51.032;3.712;2023-04-22T05:49:34;7.7;96
74458;SHT31;62896;51.032;3.712;2023-04-22T05:52:54;7.7;96
74458;SHT31;62896;51.032;3.712;2023-04-22T05:56:14;7.6;96
74458;SHT31;62896;51.032;3.712;2023-04-22T05:59:34;7.6;96
74458;SHT31;62896;51.032;3.712;2023-04-22T06:02:54;7.6;96
74458;SHT31;62896;51.032;3.712;2023-04-22T06:06:14;7.8;96
74458;SHT31;62896;51.032;3.712;2023-04-22T06:09:34;7.8;96
74458;SHT31;62896;51.032;3.712;2023-04-22T06:12:54;7.8;96
74458;SHT31;62896;51.032;3.712;2023-04-22T06:16:14;8.2;95
74458;SHT31;62896;51.032;3.712;2023-04-22T06:19:34;8.2;95
74458;SHT31;62896;51.032;3.712;2023-04-22T06:22:54;8.2;95
74458;SHT31;62896;51.032;3.712;2023-04-22T06:26:14;8.3;94
74458;SHT31;62896;51.032;3.712;2023-04-22T06:29:34;8.3;94
74458;SHT31;62896;51.032;3.712;2023-04-22T06:32:54;8.3;94
74458;SHT31;62896;51.032;3.712;2023-04-22T06:36:14;8.2;95
74458;SHT31;62896;51.032;3.712;2023-04-22T06:39:34;8.2;95
74458;SHT31;62896;51.032;3.712;2023-04-22T06:42:54;8.2;95
74458;SHT31;62896;51.032;3.712;2023-04-22T06:46:14;8.5;94
74458;SHT31;62896;51.032;3.712;2023-04-22T06:49:34;8.5;94
74458;SHT31;62896;51.032;3.712;2023-04-22T06:52:54;8.5;94
74458;SHT31;62896;51.032;3.712;2023-04-22T06:56:14;8.7;93
74458;SHT31;62896;51.032;3.712;2023-04-22T06:59:34;8.7;93
74458;SHT31;62896;51.032;3.712;2023-04-22T07:02:54;8.7;93
74458;SHT31;62896;51.032;3.712;2023-04-22T07:06:14;8.8;93
74458;SHT31;62896;51.032;3.712;2023-04-22T07:09:34;8.8;93
74458;SHT31;62896;51.032;3.712;2023-04-22T07:12:54;8.8;93
74458;SHT31;62896;51.032;3.712;2023-04-22T07:16:14;9.2;92
74458;SHT31;62896;51.032;3.712;2023-04-22T07:19:34;9.2;92
74458;SHT31;62896;51.032;3.712;2023-04-22T07:22:54;9.2;92
74458;SHT31;62896;51.032;3.712;2023-04-22T07:26:14;9.4;91
74458;SHT31;62896;51.032;3.712;2023-04-22T07:29:34;9.4;91
74458;SHT31;62896;51.032;3.712;2023-04-22T07:32:55;9.4;91
74458;SHT31;62896;51.032;3.712;2023-04-22T07:36:14;9.6;90
74458;SHT31;62896;51.032;3.712;2023-04-22T07:39:34;9.6;90
74458;SHT31;62896;51.032;3.712;2023-04-22T07:42:54;9.6;90
74458;SHT31;62896;51.032;3.712;2023-04-22T07:46:14;9.9;88
74458;SHT31;62896;51.032;3.712;2023-04-22T07:49:34;9.9;88
74458;SHT31;62896;51.032;3.712;2023-04-22T07:52:54;9.9;88
74458;SHT31;62896;51.032;3.712;2023-04-22T07:56:14;10.1;88
74458;SHT31;62896;51.032;3.712;2023-04-22T07:59:34;10.1;88
74458;SHT31;62896;51.032;3.712;2023-04-22T08:02:54;10.1;88
74458;SHT31;62896;51.032;3.712;2023-04-22T08:06:14;10.8;86
74458;SHT31;62896;51.032;3.712;2023-04-22T08:09:34;10.8;86
74458;SHT31;62896;51.032;3.712;2023-04-22T08:12:54;10.8;86
74458;SHT31;62896;51.032;3.712;2023-04-22T08:16:15;11.3;84
74458;SHT31;62896;51.032;3.712;2023-04-22T08:19:34;11.3;84
74458;SHT31;62896;51.032;3.712;2023-04-22T08:22:54;11.3;84
74458;SHT31;62896;51.032;3.712;2023-04-22T08:26:14;11.9;82
74458;SHT31;62896;51.032;3.712;2023-04-22T08:29:34;11.9;82
74458;SHT31;62896;51.032;3.712;2023-04-22T08:32:54;11.9;82
74458;SHT31;62896;51.032;3.712;2023-04-22T08:36:14;12;81
74458;SHT31;62896;51.032;3.712;2023-04-22T08:39:34;12;81
74458;SHT31;62896;51.032;3.712;2023-04-22T08:42:54;12;81
74458;SHT31;62896;51.032;3.712;2023-04-22T08:46:15;11.7;82
74458;SHT31;62896;51.032;3.712;2023-04-22T08:49:34;11.7;82
74458;SHT31;62896;51.032;3.712;2023-04-22T08:52:54;11.7;82
74458;SHT31;62896;51.032;3.712;2023-04-22T08:56:14;11.4;84
74458;SHT31;62896;51.032;3.712;2023-04-22T08:59:35;11.4;84
74458;SHT31;62896;51.032;3.712;2023-04-22T09:02:54;11.4;84
74458;SHT31;62896;51.032;3.712;2023-04-22T09:06:14;11.1;86
74458;SHT31;62896;51.032;3.712;2023-04-22T09:09:34;11.1;86
74458;SHT31;62896;51.032;3.712;2023-04-22T09:12:55;11.1;86
74458;SHT31;62896;51.032;3.712;2023-04-22T09:16:14;10.9;89
74458;SHT31;62896;51.032;3.712;2023-04-22T09:19:34;10.9;89
74458;SHT31;62896;51.032;3.712;2023-04-22T09:22:55;10.9;89
74458;SHT31;62896;51.032;3.712;2023-04-22T09:26:17;10.8;89
74458;SHT31;62896;51.032;3.712;2023-04-22T09:29:34;10.8;89
74458;SHT31;62896;51.032;3.712;2023-04-22T09:32:55;10.8;89
74458;SHT31;62896;51.032;3.712;2023-04-22T09:36:14;10.7;91
74458;SHT31;62896;51.032;3.712;2023-04-22T09:39:34;10.7;91
74458;SHT31;62896;51.032;3.712;2023-04-22T09:42:55;10.7;91
74458;SHT31;62896;51.032;3.712;2023-04-22T09:46:14;10.8;92
74458;SHT31;62896;51.032;3.712;2023-04-22T09:49:35;10.8;92
74458;SHT31;62896;51.032;3.712;2023-04-22T09:52:55;10.8;92
74458;SHT31;62896;51.032;3.712;2023-04-22T09:56:14;10.8;93
74458;SHT31;62896;51.032;3.712;2023-04-22T09:59:34;10.8;93
74458;SHT31;62896;51.032;3.712;2023-04-22T10:02:54;10.8;93
74458;SHT31;62896;51.032;3.712;2023-04-22T10:06:14;10.8;92
74458;SHT31;62896;51.032;3.712;2023-04-22T10:09:34;10.8;92
74458;SHT31;62896;51.032;3.712;2023-04-22T10:12:55;10.8;92
74458;SHT31;62896;51.032;3.712;2023-04-22T10:16:15;11.3;91
74458;SHT31;62896;51.032;3.712;2023-04-22T10:19:35;11.3;91
74458;SHT31;62896;51.032;3.712;2023-04-22T10:22:55;11.3;91
74458;SHT31;62896;51.032;3.712;2023-04-22T10:26:36;11.1;91
74458;SHT31;62896;51.032;3.712;2023-04-22T10:29:35;11.1;91
74458;SHT31;62896;51.032;3.712;2023-04-22T10:32:55;11.1;91
74458;SHT31;62896;51.032;3.712;2023-04-22T10:36:15;11;91
74458;SHT31;62896;51.032;3.712;2023-04-22T10:39:35;11;91
74458;SHT31;62896;51.032;3.712;2023-04-22T10:42:57;11;91
74458;SHT31;62896;51.032;3.712;2023-04-22T10:49:35;10.8;91
74458;SHT31;62896;51.032;3.712;2023-04-22T10:52:55;10.8;91
74458;SHT31;62896;51.032;3.712;2023-04-22T10:56:15;10.8;91
74458;SHT31;62896;51.032;3.712;2023-04-22T10:59:40;10.8;91
74458;SHT31;62896;51.032;3.712;2023-04-22T11:03:05;10.8;91
74458;SHT31;62896;51.032;3.712;2023-04-22T11:06:15;10.8;92
74458;SHT31;62896;51.032;3.712;2023-04-22T11:09:38;10.8;92
74458;SHT31;62896;51.032;3.712;2023-04-22T11:12:55;10.8;92
74458;SHT31;62896;51.032;3.712;2023-04-22T11:16:15;10.9;90
74458;SHT31;62896;51.032;3.712;2023-04-22T11:19:35;10.9;90
74458;SHT31;62896;51.032;3.712;2023-04-22T11:22:55;10.9;90
74458;SHT31;62896;51.032;3.712;2023-04-22T11:26:15;11;88
74458;SHT31;62896;51.032;3.712;2023-04-22T11:29:35;11;88
74458;SHT31;62896;51.032;3.712;2023-04-22T11:32:55;11;88
74458;SHT31;62896;51.032;3.712;2023-04-22T11:36:15;11;89
74458;SHT31;62896;51.032;3.712;2023-04-22T11:39:35;11;89
74458;SHT31;62896;51.032;3.712;2023-04-22T11:42:55;11;89
74458;SHT31;62896;51.032;3.712;2023-04-22T11:46:15;11.3;89
74458;SHT31;62896;51.032;3.712;2023-04-22T11:49:35;11.3;89
74458;SHT31;62896;51.032;3.712;2023-04-22T11:52:55;11.3;89
74458;SHT31;62896;51.032;3.712;2023-04-22T11:56:15;11.6;88
74458;SHT31;62896;51.032;3.712;2023-04-22T11:59:35;11.6;88
74458;SHT31;62896;51.032;3.712;2023-04-22T12:02:55;11.6;88
74458;SHT31;62896;51.032;3.712;2023-04-22T12:06:15;11.5;87
74458;SHT31;62896;51.032;3.712;2023-04-22T12:09:35;11.5;87
74458;SHT31;62896;51.032;3.712;2023-04-22T12:12:55;11.5;87
74458;SHT31;62896;51.032;3.712;2023-04-22T12:16:16;11.5;87
74458;SHT31;62896;51.032;3.712;2023-04-22T12:19:35;11.5;87
74458;SHT31;62896;51.032;3.712;2023-04-22T12:22:55;11.5;87
74458;SHT31;62896;51.032;3.712;2023-04-22T12:26:15;11.4;87
74458;SHT31;62896;51.032;3.712;2023-04-22T12:29:35;11.4;87
74458;SHT31;62896;51.032;3.712;2023-04-22T12:32:55;11.4;87
74458;SHT31;62896;51.032;3.712;2023-04-22T12:36:16;11.4;87
74458;SHT31;62896;51.032;3.712;2023-04-22T12:39:35;11.4;87
74458;SHT31;62896;51.032;3.712;2023-04-22T12:42:55;11.4;87
74458;SHT31;62896;51.032;3.712;2023-04-22T12:46:15;11.5;86
74458;SHT31;62896;51.032;3.712;2023-04-22T12:49:35;11.5;86
74458;SHT31;62896;51.032;3.712;2023-04-22T12:52:55;11.5;86
74458;SHT31;62896;51.032;3.712;2023-04-22T12:56:15;11.7;85
74458;SHT31;62896;51.032;3.712;2023-04-22T12:59:35;11.7;85
74458;SHT31;62896;51.032;3.712;2023-04-22T13:02:55;11.7;85
74458;SHT31;62896;51.032;3.712;2023-04-22T13:06:15;11.9;86
74458;SHT31;62896;51.032;3.712;2023-04-22T13:09:35;11.9;86
74458;SHT31;62896;51.032;3.712;2023-04-22T13:12:55;11.9;86
74458;SHT31;62896;51.032;3.712;2023-04-22T13:16:15;11.3;87
74458;SHT31;62896;51.032;3.712;2023-04-22T13:19:35;11.3;87
74458;SHT31;62896;51.032;3.712;2023-04-22T13:22:55;11.3;87
74458;SHT31;62896;51.032;3.712;2023-04-22T13:26:15;11.1;84
74458;SHT31;62896;51.032;3.712;2023-04-22T13:29:35;11.1;84
74458;SHT31;62896;51.032;3.712;2023-04-22T13:32:55;11.1;84
74458;SHT31;62896;51.032;3.712;2023-04-22T13:36:15;11;85
74458;SHT31;62896;51.032;3.712;2023-04-22T13:39:35;11;85
74458;SHT31;62896;51.032;3.712;2023-04-22T13:42:55;11;85
74458;SHT31;62896;51.032;3.712;2023-04-22T13:46:15;10.8;85
74458;SHT31;62896;51.032;3.712;2023-04-22T13:49:35;10.8;85
74458;SHT31;62896;51.032;3.712;2023-04-22T13:52:55;10.8;85
74458;SHT31;62896;51.032;3.712;2023-04-22T13:56:15;10.6;86
74458;SHT31;62896;51.032;3.712;2023-04-22T13:59:35;10.6;86
74458;SHT31;62896;51.032;3.712;2023-04-22T14:02:55;10.6;86
74458;SHT31;62896;51.032;3.712;2023-04-22T14:06:15;10.5;86
74458;SHT31;62896;51.032;3.712;2023-04-22T14:09:35;10.5;86
74458;SHT31;62896;51.032;3.712;2023-04-22T14:12:55;10.5;86
74458;SHT31;62896;51.032;3.712;2023-04-22T14:16:15;10.7;86
74458;SHT31;62896;51.032;3.712;2023-04-22T14:19:35;10.7;86
74458;SHT31;62896;51.032;3.712;2023-04-22T14:22:55;10.7;86
74458;SHT31;62896;51.032;3.712;2023-04-22T14:26:15;11;84
74458;SHT31;62896;51.032;3.712;2023-04-22T14:29:35;11;84
74458;SHT31;62896;51.032;3.712;2023-04-22T14:32:55;11;84
74458;SHT31;62896;51.032;3.712;2023-04-22T14:36:15;12.3;80
74458;SHT31;62896;51.032;3.712;2023-04-22T14:39:35;12.3;80
74458;SHT31;62896;51.032;3.712;2023-04-22T14:42:55;12.3;80
74458;SHT31;62896;51.032;3.712;2023-04-22T14:46:15;13.9;71
74458;SHT31;62896;51.032;3.712;2023-04-22T14:49:35;13.9;71
74458;SHT31;62896;51.032;3.712;2023-04-22T14:52:55;13.9;71
74458;SHT31;62896;51.032;3.712;2023-04-22T14:56:15;14.1;69
74458;SHT31;62896;51.032;3.712;2023-04-22T14:59:35;14.1;69
74458;SHT31;62896;51.032;3.712;2023-04-22T15:02:55;14.1;69
74458;SHT31;62896;51.032;3.712;2023-04-22T15:06:15;14.2;69
74458;SHT31;62896;51.032;3.712;2023-04-22T15:09:35;14.2;69
74458;SHT31;62896;51.032;3.712;2023-04-22T15:12:55;14.2;69
74458;SHT31;62896;51.032;3.712;2023-04-22T15:16:15;14.4;69
74458;SHT31;62896;51.032;3.712;2023-04-22T15:19:35;14.4;69
74458;SHT31;62896;51.032;3.712;2023-04-22T15:22:55;14.4;69
74458;SHT31;62896;51.032;3.712;2023-04-22T15:26:15;14.8;68
74458;SHT31;62896;51.032;3.712;2023-04-22T15:29:35;14.8;68
74458;SHT31;62896;51.032;3.712;2023-04-22T15:32:55;14.8;68
74458;SHT31;62896;51.032;3.712;2023-04-22T15:36:15;13.9;70
74458;SHT31;62896;51.032;3.712;2023-04-22T15:39:35;13.9;70
74458;SHT31;62896;51.032;3.712;2023-04-22T15:42:55;13.9;70
74458;SHT31;62896;51.032;3.712;2023-04-22T15:46:15;14.2;70
74458;SHT31;62896;51.032;3.712;2023-04-22T15:49:35;14.2;70
74458;SHT31;62896;51.032;3.712;2023-04-22T15:52:55;14.2;70
74458;SHT31;62896;51.032;3.712;2023-04-22T15:56:15;15.5;66
74458;SHT31;62896;51.032;3.712;2023-04-22T15:59:35;15.5;66
74458;SHT31;62896;51.032;3.712;2023-04-22T16:02:55;15.5;66
74458;SHT31;62896;51.032;3.712;2023-04-22T16:06:15;15.6;65
74458;SHT31;62896;51.032;3.712;2023-04-22T16:09:35;15.6;65
74458;SHT31;62896;51.032;3.712;2023-04-22T16:12:55;15.6;65
74458;SHT31;62896;51.032;3.712;2023-04-22T16:16:15;14.4;69
74458;SHT31;62896;51.032;3.712;2023-04-22T16:19:35;14.4;69
74458;SHT31;62896;51.032;3.712;2023-04-22T16:22:55;14.4;69
74458;SHT31;62896;51.032;3.712;2023-04-22T16:26:15;14.1;70
74458;SHT31;62896;51.032;3.712;2023-04-22T16:29:35;14.1;70
74458;SHT31;62896;51.032;3.712;2023-04-22T16:32:55;14.1;70
74458;SHT31;62896;51.032;3.712;2023-04-22T16:36:15;13.8;70
74458;SHT31;62896;51.032;3.712;2023-04-22T16:39:35;13.8;70
74458;SHT31;62896;51.032;3.712;2023-04-22T16:42:55;13.8;70
74458;SHT31;62896;51.032;3.712;2023-04-22T16:46:15;13.6;70
74458;SHT31;62896;51.032;3.712;2023-04-22T16:49:35;13.6;70
74458;SHT31;62896;51.032;3.712;2023-04-22T16:52:55;13.6;70
74458;SHT31;62896;51.032;3.712;2023-04-22T16:56:15;13.4;70
74458;SHT31;62896;51.032;3.712;2023-04-22T16:59:35;13.4;70
74458;SHT31;62896;51.032;3.712;2023-04-22T17:02:55;13.4;70
74458;SHT31;62896;51.032;3.712;2023-04-22T17:06:15;13.2;71
74458;SHT31;62896;51.032;3.712;2023-04-22T17:09:35;13.2;71
74458;SHT31;62896;51.032;3.712;2023-04-22T17:12:55;13.2;71
74458;SHT31;62896;51.032;3.712;2023-04-22T17:16:15;13.2;71
74458;SHT31;62896;51.032;3.712;2023-04-22T17:19:35;13.2;71
74458;SHT31;62896;51.032;3.712;2023-04-22T17:22:55;13.2;71
74458;SHT31;62896;51.032;3.712;2023-04-22T17:26:15;13.3;71
74458;SHT31;62896;51.032;3.712;2023-04-22T17:29:35;13.3;71
74458;SHT31;62896;51.032;3.712;2023-04-22T17:32:55;13.3;71
74458;SHT31;62896;51.032;3.712;2023-04-22T17:36:15;13.3;72
74458;SHT31;62896;51.032;3.712;2023-04-22T17:39:35;13.3;72
74458;SHT31;62896;51.032;3.712;2023-04-22T17:42:55;13.3;72
74458;SHT31;62896;51.032;3.712;2023-04-22T17:46:15;13.2;72
74458;SHT31;62896;51.032;3.712;2023-04-22T17:49:35;13.2;72
74458;SHT31;62896;51.032;3.712;2023-04-22T17:52:55;13.2;72
74458;SHT31;62896;51.032;3.712;2023-04-22T17:56:15;13.2;71
74458;SHT31;62896;51.032;3.712;2023-04-22T17:59:35;13.2;71
74458;SHT31;62896;51.032;3.712;2023-04-22T18:02:55;13.2;71
74458;SHT31;62896;51.032;3.712;2023-04-22T18:06:15;13.1;72
74458;SHT31;62896;51.032;3.712;2023-04-22T18:09:35;13.1;72
74458;SHT31;62896;51.032;3.712;2023-04-22T18:12:55;13.1;72
74458;SHT31;62896;51.032;3.712;2023-04-22T18:16:15;12.8;73
74458;SHT31;62896;51.032;3.712;2023-04-22T18:19:35;12.8;73
74458;SHT31;62896;51.032;3.712;2023-04-22T18:22:55;12.8;73
74458;SHT31;62896;51.032;3.712;2023-04-22T18:26:15;12.6;74
74458;SHT31;62896;51.032;3.712;2023-04-22T18:29:35;12.6;74
74458;SHT31;62896;51.032;3.712;2023-04-22T18:32:55;12.6;74
74458;SHT31;62896;51.032;3.712;2023-04-22T18:36:15;12.4;76
74458;SHT31;62896;51.032;3.712;2023-04-22T18:39:35;12.4;76
74458;SHT31;62896;51.032;3.712;2023-04-22T18:42:55;12.4;76
74458;SHT31;62896;51.032;3.712;2023-04-22T18:46:15;12.2;77
74458;SHT31;62896;51.032;3.712;2023-04-22T18:49:35;12.2;77
74458;SHT31;62896;51.032;3.712;2023-04-22T18:52:55;12.2;77
74458;SHT31;62896;51.032;3.712;2023-04-22T18:56:15;11.9;79
74458;SHT31;62896;51.032;3.712;2023-04-22T18:59:35;11.9;79
74458;SHT31;62896;51.032;3.712;2023-04-22T19:02:55;11.9;79
74458;SHT31;62896;51.032;3.712;2023-04-22T19:06:15;11.7;79
74458;SHT31;62896;51.032;3.712;2023-04-22T19:09:35;11.7;79
74458;SHT31;62896;51.032;3.712;2023-04-22T19:12:55;11.7;79
74458;SHT31;62896;51.032;3.712;2023-04-22T19:16:15;11.5;80
74458;SHT31;62896;51.032;3.712;2023-04-22T19:19:35;11.5;80
74458;SHT31;62896;51.032;3.712;2023-04-22T19:22:55;11.5;80
74458;SHT31;62896;51.032;3.712;2023-04-22T19:26:15;11.4;80
74458;SHT31;62896;51.032;3.712;2023-04-22T19:29:35;11.4;80
74458;SHT31;62896;51.032;3.712;2023-04-22T19:32:55;11.4;80
74458;SHT31;62896;51.032;3.712;2023-04-22T19:36:15;11.3;81
74458;SHT31;62896;51.032;3.712;2023-04-22T19:39:35;11.3;81
74458;SHT31;62896;51.032;3.712;2023-04-22T19:42:55;11.3;81
74458;SHT31;62896;51.032;3.712;2023-04-22T19:46:15;11.3;81
74458;SHT31;62896;51.032;3.712;2023-04-22T19:49:35;11.3;81
74458;SHT31;62896;51.032;3.712;2023-04-22T19:52:56;11.3;81
74458;SHT31;62896;51.032;3.712;2023-04-22T19:56:15;11.1;82
74458;SHT31;62896;51.032;3.712;2023-04-22T19:59:35;11.1;82
74458;SHT31;62896;51.032;3.712;2023-04-22T20:02:55;11.1;82
74458;SHT31;62896;51.032;3.712;2023-04-22T20:06:15;11;84
74458;SHT31;62896;51.032;3.712;2023-04-22T20:09:35;11;84
74458;SHT31;62896;51.032;3.712;2023-04-22T20:12:55;11;84
74458;SHT31;62896;51.032;3.712;2023-04-22T20:16:15;10.9;85
74458;SHT31;62896;51.032;3.712;2023-04-22T20:19:35;10.9;85
74458;SHT31;62896;51.032;3.712;2023-04-22T20:22:55;10.9;85
74458;SHT31;62896;51.032;3.712;2023-04-22T20:26:16;10.8;86
74458;SHT31;62896;51.032;3.712;2023-04-22T20:29:35;10.8;86
74458;SHT31;62896;51.032;3.712;2023-04-22T20:32:55;10.8;86
74458;SHT31;62896;51.032;3.712;2023-04-22T20:36:15;10.8;87
74458;SHT31;62896;51.032;3.712;2023-04-22T20:39:35;10.8;87
74458;SHT31;62896;51.032;3.712;2023-04-22T20:42:55;10.8;87
74458;SHT31;62896;51.032;3.712;2023-04-22T20:46:15;10.7;88
74458;SHT31;62896;51.032;3.712;2023-04-22T20:49:35;10.7;88
74458;SHT31;62896;51.032;3.712;2023-04-22T20:52:55;10.7;88
74458;SHT31;62896;51.032;3.712;2023-04-22T20:56:15;10.7;89
74458;SHT31;62896;51.032;3.712;2023-04-22T20:59:35;10.7;89
74458;SHT31;62896;51.032;3.712;2023-04-22T21:02:55;10.7;89
74458;SHT31;62896;51.032;3.712;2023-04-22T21:06:15;10.6;89
74458;SHT31;62896;51.032;3.712;2023-04-22T21:09:35;10.6;89
74458;SHT31;62896;51.032;3.712;2023-04-22T21:12:55;10.6;89
74458;SHT31;62896;51.032;3.712;2023-04-22T21:16:16;10.6;90
74458;SHT31;62896;51.032;3.712;2023-04-22T21:19:35;10.6;90
74458;SHT31;62896;51.032;3.712;2023-04-22T21:22:55;10.6;90
74458;SHT31;62896;51.032;3.712;2023-04-22T21:26:15;10.5;90
74458;SHT31;62896;51.032;3.712;2023-04-22T21:29:35;10.5;90
74458;SHT31;62896;51.032;3.712;2023-04-22T21:32:55;10.5;90
74458;SHT31;62896;51.032;3.712;2023-04-22T21:36:15;10.5;90
74458;SHT31;62896;51.032;3.712;2023-04-22T21:39:35;10.5;90
74458;SHT31;62896;51.032;3.712;2023-04-22T21:42:55;10.5;90
74458;SHT31;62896;51.032;3.712;2023-04-22T21:46:15;10.4;91
74458;SHT31;62896;51.032;3.712;2023-04-22T21:49:35;10.4;91
74458;SHT31;62896;51.032;3.712;2023-04-22T21:52:55;10.4;91
74458;SHT31;62896;51.032;3.712;2023-04-22T21:56:15;10.3;91
74458;SHT31;62896;51.032;3.712;2023-04-22T21:59:35;10.3;91
74458;SHT31;62896;51.032;3.712;2023-04-22T22:02:55;10.3;91
74458;SHT31;62896;51.032;3.712;2023-04-22T22:06:15;10.2;91
74458;SHT31;62896;51.032;3.712;2023-04-22T22:09:35;10.2;91
74458;SHT31;62896;51.032;3.712;2023-04-22T22:12:55;10.2;91
74458;SHT31;62896;51.032;3.712;2023-04-22T22:16:15;10.1;92
74458;SHT31;62896;51.032;3.712;2023-04-22T22:19:35;10.1;92
74458;SHT31;62896;51.032;3.712;2023-04-22T22:22:55;10.1;92
74458;SHT31;62896;51.032;3.712;2023-04-22T22:26:15;10;92
74458;SHT31;62896;51.032;3.712;2023-04-22T22:29:35;10;92
74458;SHT31;62896;51.032;3.712;2023-04-22T22:32:55;10;92
74458;SHT31;62896;51.032;3.712;2023-04-22T22:36:15;10.1;92
74458;SHT31;62896;51.032;3.712;2023-04-22T22:39:35;10.1;92
74458;SHT31;62896;51.032;3.712;2023-04-22T22:42:55;10.1;92
74458;SHT31;62896;51.032;3.712;2023-04-22T22:46:15;10.1;92